Time;durP1;ratioP1;P1;durP2;ratioP2;P2;SDS_P1;SDS_P2;PMS_P1;PMS_P2;Temp;Humidity;BMP_temperature;BMP_pressure;BME280_temperature;BME280_humidity;BME280_pressure;Samples;Min_cycle;Max_cycle;Signal;HPM_P1;HPM_P2
2022/06/10 00:00:57;;;;;;;;;;;;;;;;;;6236222;22;20010;-89
2022/06/10 00:03:26;;;;;;;;;;;;;;;;;;6211746;22;20324;-89
2022/06/10 00:05:55;;;;;;;;;;;;;;;;;;6212232;22;20294;-90
2022/06/10 00:08:21;;;;;;;;;;;;;;;;;;6240594;22;19916;-88
2022/06/10 00:10:50;;;;;;;;;;;;;;;;;;6218082;22;19954;-88
2022/06/10 00:13:19;;;;;;;;;;;;;;;;;;6207947;22;19916;-88
2022/06/10 00:15:48;;;;;;;;;;;;;;;;;;6205366;22;20078;-88
2022/06/10 00:18:14;;;;;;;;;;;;;;;;;;6232800;22;19923;-88
2022/06/10 00:20:40;;;;;;;;;;;;;;;;;;6206096;22;19919;-89
2022/06/10 00:23:06;;;;;;;;;;;;;;;;;;6207476;22;19942;-89
2022/06/10 00:25:32;;;;;;;;;;;;;;;;;;6207242;22;19923;-89
2022/06/10 00:28:04;;;;;;;;;;;;;;;;;;6207724;22;20002;-88
2022/06/10 00:30:31;;;;;;;;;;;;;;;;;;6205825;22;19990;-89
2022/06/10 00:32:57;;;;;;;;;;;;;;;;;;6236343;22;19919;-89
2022/06/10 00:35:23;;;;;;;;;;;;;;;;;;6208199;22;19950;-88
2022/06/10 00:37:56;;;;;;;;;;;;;;;;;;6233731;22;19923;-89
2022/06/10 00:40:22;;;;;;;;;;;;;;;;;;6233295;22;20326;-88
2022/06/10 00:42:54;;;;;;;;;;;;;;;;;;6208530;22;19954;-89
2022/06/10 00:45:25;;;;;;;;;;;;;;;;;;6206602;22;19926;-88
2022/06/10 00:48:03;;;;;;;;;;;;;;;;;;6211821;22;20008;-88
2022/06/10 00:50:32;;;;;;;;;;;;;;;;;;6231288;22;20345;-89
2022/06/10 00:53:00;;;;;;;;;;;;;;;;;;6209866;22;19919;-88
2022/06/10 00:55:30;;;;;;;;;;;;;;;;;;6206194;22;19926;-89
2022/06/10 00:57:58;;;;;;;;;;;;;;;;;;6232174;22;19996;-88
2022/06/10 01:00:26;;;;;;;;;;;;;;;;;;6206379;22;19993;-89
2022/06/10 01:02:52;;;;;;;;;;;;;;;;;;6206967;22;19919;-88
2022/06/10 01:05:21;;;;;;;;;;;;;;;;;;6233700;22;20419;-89
2022/06/10 01:07:49;;;;;;;;;;;;;;;;;;6207142;22;19984;-89
2022/06/10 01:10:15;;;;;;;;;;;;;;;;;;6208081;22;19938;-89
2022/06/10 01:12:41;;;;;;;;;;;;;;;;;;6206985;22;19919;-88
2022/06/10 01:15:08;;;;;;;;;;;;;;;;;;6209000;22;20412;-89
2022/06/10 01:17:34;;;;;;;;;;;;;;;;;;6204585;22;19946;-89
2022/06/10 01:20:03;;;;;;;;;;;;;;;;;;6231481;22;20235;-89
2022/06/10 01:22:29;;;;;;;;;;;;;;;;;;6229739;22;19994;-88
2022/06/10 01:24:55;;;;;;;;;;;;;;;;;;6209013;22;19930;-89
2022/06/10 01:30:05;;;;;;;;;;;;;;;;;;6234398;22;19923;-89
2022/06/10 01:32:32;;;;;;;;;;;;;;;;;;6206813;22;19919;-89
2022/06/10 01:34:58;;;;;;;;;;;;;;;;;;6232330;22;19915;-89
2022/06/10 01:37:24;;;;;;;;;;;;;;;;;;6208475;22;20558;-89
2022/06/10 01:39:53;;;;;;;;;;;;;;;;;;6207522;22;20298;-89
2022/06/10 01:42:29;;;;;;;;;;;;;;;;;;6209230;22;20013;-90
2022/06/10 01:44:55;;;;;;;;;;;;;;;;;;6210518;22;19923;-90
2022/06/10 01:47:21;;;;;;;;;;;;;;;;;;6211517;22;20668;-90
2022/06/10 01:49:50;;;;;;;;;;;;;;;;;;6209943;22;19985;-91
2022/06/10 01:52:18;;;;;;;;;;;;;;;;;;6210588;22;19919;-91
2022/06/10 01:54:45;;;;;;;;;;;;;;;;;;6208564;22;20306;-90
2022/06/10 01:57:11;;;;;;;;;;;;;;;;;;6214495;22;19919;-90
2022/06/10 01:59:39;;;;;;;;;;;;;;;;;;6210285;22;19930;-90
2022/06/10 02:02:08;;;;;;;;;;;;;;;;;;6211867;22;19927;-91
2022/06/10 02:04:34;;;;;;;;;;;;;;;;;;6215933;22;19993;-91
2022/06/10 02:07:00;;;;;;;;;;;;;;;;;;6219893;22;19919;-90
2022/06/10 02:09:26;;;;;;;;;;;;;;;;;;6209954;22;19923;-90
2022/06/10 02:11:56;;;;;;;;;;;;;;;;;;6246018;22;20107;-90
2022/06/10 02:14:22;;;;;;;;;;;;;;;;;;6212015;22;19919;-91
2022/06/10 02:16:52;;;;;;;;;;;;;;;;;;6211785;22;19992;-91
2022/06/10 02:19:18;;;;;;;;;;;;;;;;;;6237999;22;19923;-91
2022/06/10 02:21:44;;;;;;;;;;;;;;;;;;6212710;22;20917;-92
2022/06/10 02:24:13;;;;;;;;;;;;;;;;;;6215375;22;20468;-91
2022/06/10 02:26:41;;;;;;;;;;;;;;;;;;6211014;22;19947;-91
2022/06/10 02:29:15;;;;;;;;;;;;;;;;;;6214084;22;19920;-91
2022/06/10 02:31:41;;;;;;;;;;;;;;;;;;6213515;22;19926;-91
2022/06/10 02:34:07;;;;;;;;;;;;;;;;;;6212719;22;19919;-91
2022/06/10 02:36:33;;;;;;;;;;;;;;;;;;6207769;22;19972;-90
2022/06/10 02:38:59;;;;;;;;;;;;;;;;;;6210019;22;19930;-90
2022/06/10 02:41:28;;;;;;;;;;;;;;;;;;6208952;22;19915;-91
2022/06/10 02:43:54;;;;;;;;;;;;;;;;;;6209553;22;20375;-90
2022/06/10 02:46:29;;;;;;;;;;;;;;;;;;6210053;22;19950;-90
2022/06/10 02:48:55;;;;;;;;;;;;;;;;;;6209876;22;20292;-91
2022/06/10 02:51:21;;;;;;;;;;;;;;;;;;6211566;22;19969;-91
2022/06/10 02:53:49;;;;;;;;;;;;;;;;;;6208315;22;19955;-90
2022/06/10 02:56:16;;;;;;;;;;;;;;;;;;6209220;22;19919;-91
2022/06/10 03:01:30;;;;;;;;;;;;;;;;;;6233205;22;19919;-90
2022/06/10 03:03:56;;;;;;;;;;;;;;;;;;6209741;22;19920;-90
2022/06/10 03:06:22;;;;;;;;;;;;;;;;;;6234266;22;19919;-90
2022/06/10 03:08:48;;;;;;;;;;;;;;;;;;6207361;22;19915;-90
2022/06/10 03:11:16;;;;;;;;;;;;;;;;;;6211329;22;19938;-91
2022/06/10 03:13:45;;;;;;;;;;;;;;;;;;6206885;22;19958;-91
2022/06/10 03:16:11;;;;;;;;;;;;;;;;;;6235525;22;19919;-91
2022/06/10 03:18:37;;;;;;;;;;;;;;;;;;6207605;22;19930;-91
2022/06/10 03:21:03;;;;;;;;;;;;;;;;;;6236989;22;19919;-90
2022/06/10 03:23:32;;;;;;;;;;;;;;;;;;6208522;22;19921;-91
2022/06/10 03:26:01;;;;;;;;;;;;;;;;;;6238400;22;19919;-92
2022/06/10 03:28:27;;;;;;;;;;;;;;;;;;6207547;22;19947;-90
2022/06/10 03:30:53;;;;;;;;;;;;;;;;;;6209527;22;19919;-91
2022/06/10 03:33:19;;;;;;;;;;;;;;;;;;6210078;22;19926;-91
2022/06/10 03:35:45;;;;;;;;;;;;;;;;;;6235663;22;19919;-90
2022/06/10 03:38:11;;;;;;;;;;;;;;;;;;6213268;22;19969;-91
2022/06/10 03:40:39;;;;;;;;;;;;;;;;;;6206297;23;20009;-90
2022/06/10 03:43:05;;;;;;;;;;;;;;;;;;6207993;23;19916;-91
2022/06/10 03:45:34;;;;;;;;;;;;;;;;;;6205216;23;19938;-91
2022/06/10 03:48:05;;;;;;;;;;;;;;;;;;6208962;23;20062;-91
2022/06/10 03:50:36;;;;;;;;;;;;;;;;;;6230982;23;19920;-91
2022/06/10 03:53:02;;;;;;;;;;;;;;;;;;6207508;23;19926;-91
2022/06/10 03:55:30;;;;;;;;;;;;;;;;;;6205725;23;20320;-91
2022/06/10 03:57:59;;;;;;;;;;;;;;;;;;6182879;23;19970;-91
2022/06/10 04:00:30;;;;;;;;;;;;;;;;;;6207499;23;19924;-89
2022/06/10 04:03:02;;;;;;;;;;;;;;;;;;6187277;23;19921;-92
2022/06/10 04:05:30;;;;;;;;;;;;;;;;;;6208959;23;19922;-91
2022/06/10 04:08:04;;;;;;;;;;;;;;;;;;6208093;23;19990;-91
2022/06/10 04:10:30;;;;;;;;;;;;;;;;;;6207895;23;19915;-91
2022/06/10 04:12:56;;;;;;;;;;;;;;;;;;6207498;23;20074;-91
2022/06/10 04:15:28;;;;;;;;;;;;;;;;;;6205899;23;19990;-91
2022/06/10 04:17:54;;;;;;;;;;;;;;;;;;6208423;23;19972;-91
2022/06/10 04:20:29;;;;;;;;;;;;;;;;;;6205730;23;19915;-92
2022/06/10 04:22:58;;;;;;;;;;;;;;;;;;6207418;23;19935;-92
2022/06/10 04:25:27;;;;;;;;;;;;;;;;;;6205910;23;20632;-92
2022/06/10 04:27:53;;;;;;;;;;;;;;;;;;6206810;23;19916;-91
2022/06/10 04:30:21;;;;;;;;;;;;;;;;;;6181186;23;19922;-91
2022/06/10 04:32:47;;;;;;;;;;;;;;;;;;6204302;23;19923;-91
2022/06/10 04:35:13;;;;;;;;;;;;;;;;;;6207544;23;20240;-92
2022/06/10 04:37:41;;;;;;;;;;;;;;;;;;6203387;23;20291;-91
2022/06/10 04:40:10;;;;;;;;;;;;;;;;;;6181014;23;20288;-90
2022/06/10 04:42:40;;;;;;;;;;;;;;;;;;6180290;23;19915;-91
2022/06/10 04:45:07;;;;;;;;;;;;;;;;;;6204596;23;19973;-92
2022/06/10 04:47:36;;;;;;;;;;;;;;;;;;6205310;23;19942;-90
2022/06/10 04:50:02;;;;;;;;;;;;;;;;;;6206976;23;19919;-91
2022/06/10 04:52:31;;;;;;;;;;;;;;;;;;6202922;23;20263;-90
2022/06/10 04:54:57;;;;;;;;;;;;;;;;;;6207332;23;19919;-90
2022/06/10 04:57:32;;;;;;;;;;;;;;;;;;6205378;23;19915;-91
2022/06/10 05:00:07;;;;;;;;;;;;;;;;;;6207389;23;19923;-91
2022/06/10 05:02:34;;;;;;;;;;;;;;;;;;6205007;23;19922;-91
2022/06/10 05:05:00;;;;;;;;;;;;;;;;;;6232602;23;19958;-91
2022/06/10 05:07:26;;;;;;;;;;;;;;;;;;6204101;23;20370;-91
2022/06/10 05:09:52;;;;;;;;;;;;;;;;;;6181417;23;19925;-91
2022/06/10 05:12:21;;;;;;;;;;;;;;;;;;6206406;23;19919;-91
2022/06/10 05:14:55;;;;;;;;;;;;;;;;;;6182871;23;19919;-90
2022/06/10 05:17:22;;;;;;;;;;;;;;;;;;6205375;23;19919;-91
2022/06/10 05:19:57;;;;;;;;;;;;;;;;;;6207291;23;20328;-91
2022/06/10 05:22:26;;;;;;;;;;;;;;;;;;6208148;23;19927;-90
2022/06/10 05:24:52;;;;;;;;;;;;;;;;;;6207798;23;19919;-91
2022/06/10 05:27:18;;;;;;;;;;;;;;;;;;6206693;23;20359;-91
2022/06/10 05:29:44;;;;;;;;;;;;;;;;;;6206945;23;20260;-91
2022/06/10 05:32:10;;;;;;;;;;;;;;;;;;6184832;23;19916;-90
2022/06/10 05:34:48;;;;;;;;;;;;;;;;;;6181553;23;19919;-90
2022/06/10 05:37:14;;;;;;;;;;;;;;;;;;6210987;23;20344;-91
2022/06/10 05:39:40;;;;;;;;;;;;;;;;;;6207138;23;19929;-91
2022/06/10 05:42:06;;;;;;;;;;;;;;;;;;6235555;23;19998;-90
2022/06/10 05:44:32;;;;;;;;;;;;;;;;;;6233581;23;19927;-91
2022/06/10 05:47:00;;;;;;;;;;;;;;;;;;6211038;23;20623;-91
2022/06/10 05:49:33;;;;;;;;;;;;;;;;;;6183757;23;19919;-92
2022/06/10 05:51:59;;;;;;;;;;;;;;;;;;6209207;23;19916;-90
2022/06/10 05:54:25;;;;;;;;;;;;;;;;;;6208309;23;19920;-91
2022/06/10 05:56:54;;;;;;;;;;;;;;;;;;6234603;23;19990;-90
2022/06/10 05:59:22;;;;;;;;;;;;;;;;;;6211920;23;19919;-90
2022/06/10 06:01:48;;;;;;;;;;;;;;;;;;6210652;23;20252;-91
2022/06/10 06:04:20;;;;;;;;;;;;;;;;;;6212633;23;20667;-91
2022/06/10 06:06:57;;;;;;;;;;;;;;;;;;6187873;23;19946;-92
2022/06/10 06:09:26;;;;;;;;;;;;;;;;;;6212134;23;19990;-90
2022/06/10 06:11:54;;;;;;;;;;;;;;;;;;6209834;23;19919;-91
2022/06/10 06:14:21;;;;;;;;;;;;;;;;;;6235669;23;20244;-91
2022/06/10 06:16:50;;;;;;;;;;;;;;;;;;6235037;23;20232;-91
2022/06/10 06:19:16;;;;;;;;;;;;;;;;;;6214582;23;19923;-91
2022/06/10 06:21:49;;;;;;;;;;;;;;;;;;6208370;23;20014;-93
2022/06/10 06:24:15;;;;;;;;;;;;;;;;;;6186329;23;19915;-90
2022/06/10 06:26:47;;;;;;;;;;;;;;;;;;6209692;23;19919;-90
2022/06/10 06:29:16;;;;;;;;;;;;;;;;;;6207286;23;19926;-92
2022/06/10 06:31:52;;;;;;;;;;;;;;;;;;6207386;23;20878;-90
2022/06/10 06:34:21;;;;;;;;;;;;;;;;;;6209402;23;20333;-92
2022/06/10 06:36:47;;;;;;;;;;;;;;;;;;6205914;23;19966;-90
2022/06/10 06:39:13;;;;;;;;;;;;;;;;;;6207545;23;20552;-90
2022/06/10 06:41:39;;;;;;;;;;;;;;;;;;6181169;23;19995;-90
2022/06/10 06:44:08;;;;;;;;;;;;;;;;;;6211453;23;19938;-89
2022/06/10 06:46:34;;;;;;;;;;;;;;;;;;6208236;23;19981;-89
2022/06/10 06:49:00;;;;;;;;;;;;;;;;;;6210798;23;20363;-89
2022/06/10 06:51:29;;;;;;;;;;;;;;;;;;6208716;23;19951;-93
2022/06/10 06:53:59;;;;;;;;;;;;;;;;;;6210788;23;19920;-93
2022/06/10 06:56:28;;;;;;;;;;;;;;;;;;6211460;23;19926;-91
2022/06/10 06:58:55;;;;;;;;;;;;;;;;;;6212056;23;19931;-92
2022/06/10 07:01:21;;;;;;;;;;;;;;;;;;6212193;23;19916;-90
2022/06/10 07:03:50;;;;;;;;;;;;;;;;;;6235813;23;19997;-91
2022/06/10 07:06:22;;;;;;;;;;;;;;;;;;6213738;23;19978;-92
2022/06/10 07:08:57;;;;;;;;;;;;;;;;;;6214415;23;19945;-91
2022/06/10 07:11:41;;;;;;;;;;;;;;;;;;6213267;23;19919;-91
2022/06/10 07:14:19;;;;;;;;;;;;;;;;;;;;;
2022/06/10 07:16:51;;;;;;;;;;;;;;;;;;6212236;23;19928;-91
2022/06/10 07:19:17;;;;;;;;;;;;;;;;;;6218596;23;20291;-92
2022/06/10 07:21:46;;;;;;;;;;;;;;;;;;6236857;23;19916;-92
2022/06/10 07:24:12;;;;;;;;;;;;;;;;;;6213369;23;19916;-92
2022/06/10 07:26:38;;;;;;;;;;;;;;;;;;6238886;23;20229;-91
2022/06/10 07:29:13;;;;;;;;;;;;;;;;;;6214040;23;20398;-91
2022/06/10 07:31:42;;;;;;;;;;;;;;;;;;6236470;23;19915;-90
2022/06/10 07:34:17;;;;;;;;;;;;;;;;;;6213203;23;19915;-91
2022/06/10 07:36:43;;;;;;;;;;;;;;;;;;6210354;23;20358;-91
2022/06/10 07:39:12;;;;;;;;;;;;;;;;;;6245057;22;19942;-90
2022/06/10 07:44:26;;;;;;;;;;;;;;;;;;6239655;22;19926;-89
2022/06/10 07:46:57;;;;;;;;;;;;;;;;;;6240995;22;19919;-89
2022/06/10 07:49:23;;;;;;;;;;;;;;;;;;6215917;22;20323;-91
2022/06/10 07:51:52;;;;;;;;;;;;;;;;;;6216117;22;20515;-90
2022/06/10 07:54:18;;;;;;;;;;;;;;;;;;6241864;22;19915;-90
2022/06/10 07:56:47;;;;;;;;;;;;;;;;;;6238016;22;19923;-89
2022/06/10 07:59:16;;;;;;;;;;;;;;;;;;6216685;22;19923;-90
2022/06/10 08:01:42;;;;;;;;;;;;;;;;;;6213849;22;20014;-90
2022/06/10 08:04:08;;;;;;;;;;;;;;;;;;6241149;22;19958;-89
2022/06/10 08:06:34;;;;;;;;;;;;;;;;;;6212709;22;20288;-90
2022/06/10 08:09:00;;;;;;;;;;;;;;;;;;6215801;22;19947;-89
2022/06/10 08:11:26;;;;;;;;;;;;;;;;;;6216982;22;20240;-90
2022/06/10 08:13:52;;;;;;;;;;;;;;;;;;6217449;22;19915;-90
2022/06/10 08:16:19;;;;;;;;;;;;;;;;;;6241939;22;20014;-88
2022/06/10 08:18:45;;;;;;;;;;;;;;;;;;6225024;22;19939;-91
2022/06/10 08:23:56;;;;;;;;;;;;;;;;;;6268744;22;20367;-90
2022/06/10 08:26:22;;;;;;;;;;;;;;;;;;6268405;22;19965;-90
2022/06/10 08:28:48;;;;;;;;;;;;;;;;;;6214259;22;20287;-89
2022/06/10 08:31:16;;;;;;;;;;;;;;;;;;6240583;22;19919;-92
2022/06/10 08:33:45;;;;;;;;;;;;;;;;;;6212590;22;20263;-91
2022/06/10 08:36:13;;;;;;;;;;;;;;;;;;6216091;22;19919;-92
2022/06/10 08:38:42;;;;;;;;;;;;;;;;;;6214377;22;19926;-92
2022/06/10 08:41:08;;;;;;;;;;;;;;;;;;6217429;22;19926;-92
2022/06/10 08:43:41;;;;;;;;;;;;;;;;;;6241269;22;19923;-91
2022/06/10 08:46:10;;;;;;;;;;;;;;;;;;6217465;22;19915;-92
2022/06/10 08:48:39;;;;;;;;;;;;;;;;;;6216200;22;19990;-91
2022/06/10 08:51:07;;;;;;;;;;;;;;;;;;6217777;22;20346;-92
2022/06/10 08:53:44;;;;;;;;;;;;;;;;;;6218104;22;20002;-92
2022/06/10 08:56:13;;;;;;;;;;;;;;;;;;6220517;22;20315;-91
2022/06/10 08:58:43;;;;;;;;;;;;;;;;;;6217873;22;20312;-89
2022/06/10 09:01:11;;;;;;;;;;;;;;;;;;6224738;22;19978;-91
2022/06/10 09:03:40;;;;;;;;;;;;;;;;;;6219275;22;19915;-93
2022/06/10 09:06:06;;;;;;;;;;;;;;;;;;6249253;22;20425;-91
2022/06/10 09:08:32;;;;;;;;;;;;;;;;;;6218110;22;19925;-91
2022/06/10 09:10:58;;;;;;;;;;;;;;;;;;6219911;22;19950;-91
2022/06/10 09:13:27;;;;;;;;;;;;;;;;;;6219134;22;19919;-91
2022/06/10 09:15:58;;;;;;;;;;;;;;;;;;6223321;22;19951;-90
2022/06/10 09:18:28;;;;;;;;;;;;;;;;;;6235491;22;19926;-91
2022/06/10 09:20:56;;;;;;;;;;;;;;;;;;6262460;22;19967;-92
2022/06/10 09:23:22;;;;;;;;;;;;;;;;;;6236409;22;19939;-92
2022/06/10 09:25:51;;;;;;;;;;;;;;;;;;6256301;22;19915;-92
2022/06/10 09:28:20;;;;;;;;;;;;;;;;;;6239028;22;19915;-91
2022/06/10 09:30:46;;;;;;;;;;;;;;;;;;6233840;22;20364;-91
2022/06/10 09:33:15;;;;;;;;;;;;;;;;;;6226764;22;19969;-90
2022/06/10 09:35:45;;;;;;;;;;;;;;;;;;6219993;22;19974;-91
2022/06/10 09:38:17;;;;;;;;;;;;;;;;;;6220248;22;19931;-90
2022/06/10 09:40:43;;;;;;;;;;;;;;;;;;6216970;22;19923;-91
2022/06/10 09:43:09;;;;;;;;;;;;;;;;;;6219557;22;19921;-90
2022/06/10 09:45:41;;;;;;;;;;;;;;;;;;6216892;22;20343;-91
2022/06/10 09:48:09;;;;;;;;;;;;;;;;;;6244355;22;19916;-91
2022/06/10 09:50:35;;;;;;;;;;;;;;;;;;6216487;22;19919;-90
2022/06/10 09:53:04;;;;;;;;;;;;;;;;;;6219970;22;19916;-93
2022/06/10 09:55:31;;;;;;;;;;;;;;;;;;6215819;22;19919;-90
2022/06/10 09:57:57;;;;;;;;;;;;;;;;;;6219024;22;19926;-92
2022/06/10 10:00:25;;;;;;;;;;;;;;;;;;6216276;22;20302;-92
2022/06/10 10:02:51;;;;;;;;;;;;;;;;;;6243362;22;20065;-93
2022/06/10 10:05:17;;;;;;;;;;;;;;;;;;6243527;22;20355;-94
2022/06/10 10:07:46;;;;;;;;;;;;;;;;;;6220056;22;19962;-94
2022/06/10 10:10:18;;;;;;;;;;;;;;;;;;6247751;22;20247;-93
2022/06/10 10:12:44;;;;;;;;;;;;;;;;;;6227506;22;20380;-94
2022/06/10 10:15:12;;;;;;;;;;;;;;;;;;6227066;22;19926;-93
2022/06/10 10:17:39;;;;;;;;;;;;;;;;;;6245666;22;19922;-95
2022/06/10 10:20:08;;;;;;;;;;;;;;;;;;6218598;22;19967;-93
2022/06/10 10:22:37;;;;;;;;;;;;;;;;;;6217094;22;19930;-94
2022/06/10 10:25:07;;;;;;;;;;;;;;;;;;6227240;22;19998;-94
2022/06/10 10:27:36;;;;;;;;;;;;;;;;;;6219157;22;19926;-91
2022/06/10 10:30:22;;;;;;;;;;;;;;;;;;6241906;22;19926;-95
2022/06/10 10:32:48;;;;;;;;;;;;;;;;;;6217289;22;20231;-93
2022/06/10 10:35:14;;;;;;;;;;;;;;;;;;6215847;22;20239;-92
2022/06/10 10:37:40;;;;;;;;;;;;;;;;;;6214620;22;19972;-92
2022/06/10 10:40:06;;;;;;;;;;;;;;;;;;6213326;23;19994;-91
2022/06/10 10:42:35;;;;;;;;;;;;;;;;;;6186573;23;19941;-93
2022/06/10 10:45:01;;;;;;;;;;;;;;;;;;6213680;23;19916;-94
2022/06/10 10:47:27;;;;;;;;;;;;;;;;;;6210866;23;19924;-92
2022/06/10 10:49:53;;;;;;;;;;;;;;;;;;6213417;23;19923;-93
2022/06/10 10:52:19;;;;;;;;;;;;;;;;;;6215753;23;20331;-93
2022/06/10 10:54:48;;;;;;;;;;;;;;;;;;6211163;23;19920;-92
2022/06/10 10:57:19;;;;;;;;;;;;;;;;;;6188286;23;19919;-94
2022/06/10 10:59:48;;;;;;;;;;;;;;;;;;6211145;23;19927;-94
2022/06/10 11:02:14;;;;;;;;;;;;;;;;;;6205292;23;19986;-93
2022/06/10 11:04:40;;;;;;;;;;;;;;;;;;6238689;23;19920;-92
2022/06/10 11:07:06;;;;;;;;;;;;;;;;;;6215535;23;19943;-92
2022/06/10 11:09:32;;;;;;;;;;;;;;;;;;6211410;23;19919;-93
2022/06/10 11:11:58;;;;;;;;;;;;;;;;;;6238667;23;19915;-92
2022/06/10 11:14:27;;;;;;;;;;;;;;;;;;6215237;23;19930;-91
2022/06/10 11:16:53;;;;;;;;;;;;;;;;;;6216085;23;19919;-92
2022/06/10 11:19:19;;;;;;;;;;;;;;;;;;6214164;23;19923;-94
2022/06/10 11:21:45;;;;;;;;;;;;;;;;;;6212550;23;19923;-92
2022/06/10 11:24:11;;;;;;;;;;;;;;;;;;6220470;23;20311;-93
2022/06/10 11:26:37;;;;;;;;;;;;;;;;;;6211589;23;20216;-93
2022/06/10 11:29:03;;;;;;;;;;;;;;;;;;6213383;23;19951;-92
2022/06/10 11:31:33;;;;;;;;;;;;;;;;;;6208635;23;20324;-93
2022/06/10 11:33:59;;;;;;;;;;;;;;;;;;6191522;23;20033;-92
2022/06/10 11:36:25;;;;;;;;;;;;;;;;;;6209029;23;19933;-89
2022/06/10 11:38:51;;;;;;;;;;;;;;;;;;6211416;22;19998;-91
2022/06/10 11:41:17;;;;;;;;;;;;;;;;;;6240792;22;19919;-89
2022/06/10 11:43:43;;;;;;;;;;;;;;;;;;6238713;22;19919;-90
2022/06/10 11:46:09;;;;;;;;;;;;;;;;;;6216524;22;19964;-90
2022/06/10 11:48:36;;;;;;;;;;;;;;;;;;6266319;22;20008;-90
2022/06/10 11:51:02;;;;;;;;;;;;;;;;;;6217243;22;19965;-91
2022/06/10 11:53:28;;;;;;;;;;;;;;;;;;6215664;22;19919;-91
2022/06/10 11:59:42;;;;;;;;;;;;;;;;;;6218029;22;19961;-91
2022/06/10 12:01:25;;;;;;;;;;;;;;;;;;6241994;22;19923;-91
2022/06/10 12:03:51;;;;;;;;;;;;;;;;;;6243580;22;19961;-91
2022/06/10 12:06:18;;;;;;;;;;;;;;;;;;6217990;22;19922;-90
2022/06/10 12:08:44;;;;;;;;;;;;;;;;;;6240625;22;20231;-91
2022/06/10 12:11:10;;;;;;;;;;;;;;;;;;6218040;22;19916;-91
2022/06/10 12:13:37;;;;;;;;;;;;;;;;;;6241450;22;19926;-91
2022/06/10 12:16:03;;;;;;;;;;;;;;;;;;6217689;22;20316;-91
2022/06/10 12:18:29;;;;;;;;;;;;;;;;;;6216734;22;20328;-90
2022/06/10 12:20:55;;;;;;;;;;;;;;;;;;6218831;22;19945;-90
2022/06/10 12:23:23;;;;;;;;;;;;;;;;;;6217423;22;19926;-92
2022/06/10 12:25:52;;;;;;;;;;;;;;;;;;6218618;22;19927;-92
2022/06/10 12:28:20;;;;;;;;;;;;;;;;;;6218752;22;19946;-90
2022/06/10 12:31:00;;;;;;;;;;;;;;;;;;6243800;22;19919;-92
2022/06/10 12:33:26;;;;;;;;;;;;;;;;;;6241978;22;19916;-91
2022/06/10 12:35:52;;;;;;;;;;;;;;;;;;6243478;22;19922;-91
2022/06/10 12:38:21;;;;;;;;;;;;;;;;;;6217978;22;19919;-90
2022/06/10 12:40:47;;;;;;;;;;;;;;;;;;6215643;22;19923;-92
2022/06/10 12:43:13;;;;;;;;;;;;;;;;;;6221571;22;19915;-90
2022/06/10 12:45:42;;;;;;;;;;;;;;;;;;6216588;22;20377;-91
2022/06/10 12:48:11;;;;;;;;;;;;;;;;;;6218734;22;20304;-92
2022/06/10 12:50:37;;;;;;;;;;;;;;;;;;6240766;22;19989;-91
2022/06/10 12:53:10;;;;;;;;;;;;;;;;;;6218978;22;19922;-92
2022/06/10 12:55:37;;;;;;;;;;;;;;;;;;6241927;22;19916;-91
2022/06/10 12:58:10;;;;;;;;;;;;;;;;;;6243511;22;20426;-91
2022/06/10 13:00:36;;;;;;;;;;;;;;;;;;6215834;22;19919;-92
2022/06/10 13:03:02;;;;;;;;;;;;;;;;;;6218950;22;20377;-91
2022/06/10 13:05:31;;;;;;;;;;;;;;;;;;6216198;22;20372;-91
2022/06/10 13:08:03;;;;;;;;;;;;;;;;;;6243241;22;19923;-90
2022/06/10 13:10:29;;;;;;;;;;;;;;;;;;6215751;22;19915;-90
2022/06/10 13:12:58;;;;;;;;;;;;;;;;;;6244073;22;20387;-91
2022/06/10 13:15:24;;;;;;;;;;;;;;;;;;6217667;22;20097;-90
2022/06/10 13:17:53;;;;;;;;;;;;;;;;;;6218482;22;19915;-91
2022/06/10 13:20:21;;;;;;;;;;;;;;;;;;6216807;22;19919;-91
2022/06/10 13:22:47;;;;;;;;;;;;;;;;;;6216201;22;20327;-91
2022/06/10 13:25:13;;;;;;;;;;;;;;;;;;6217615;22;19919;-90
2022/06/10 13:27:39;;;;;;;;;;;;;;;;;;6241160;22;20275;-91
2022/06/10 13:30:08;;;;;;;;;;;;;;;;;;6218592;22;19942;-90
2022/06/10 13:32:34;;;;;;;;;;;;;;;;;;6240670;22;19923;-90
2022/06/10 13:35:03;;;;;;;;;;;;;;;;;;6218377;22;19977;-89
2022/06/10 13:37:29;;;;;;;;;;;;;;;;;;6215613;22;19926;-91
2022/06/10 13:39:57;;;;;;;;;;;;;;;;;;6214561;23;19974;-90
2022/06/10 13:42:26;;;;;;;;;;;;;;;;;;6214683;23;19915;-90
2022/06/10 13:44:56;;;;;;;;;;;;;;;;;;6213564;23;19995;-90
2022/06/10 13:47:22;;;;;;;;;;;;;;;;;;6214713;23;19919;-91
2022/06/10 13:50:09;;;;;;;;;;;;;;;;;;6238027;23;19915;-90
2022/06/10 13:52:38;;;;;;;;;;;;;;;;;;6188064;23;19923;-92
2022/06/10 13:55:04;;;;;;;;;;;;;;;;;;6189920;23;20387;-91
2022/06/10 13:57:30;;;;;;;;;;;;;;;;;;6214449;23;19916;-91
2022/06/10 13:59:59;;;;;;;;;;;;;;;;;;6214920;23;20025;-91
2022/06/10 14:02:28;;;;;;;;;;;;;;;;;;6212130;23;19915;-90
2022/06/10 14:04:58;;;;;;;;;;;;;;;;;;6215399;23;19927;-90
2022/06/10 14:07:35;;;;;;;;;;;;;;;;;;6212862;23;19915;-90
2022/06/10 14:10:01;;;;;;;;;;;;;;;;;;6239305;23;19950;-90
2022/06/10 14:12:34;;;;;;;;;;;;;;;;;;6237870;23;19919;-90
2022/06/10 14:15:10;;;;;;;;;;;;;;;;;;6213188;23;19987;-90
2022/06/10 14:17:36;;;;;;;;;;;;;;;;;;6186846;23;20339;-90
2022/06/10 14:20:02;;;;;;;;;;;;;;;;;;6239762;23;19930;-91
2022/06/10 14:22:30;;;;;;;;;;;;;;;;;;6192018;23;19955;-92
2022/06/10 14:24:56;;;;;;;;;;;;;;;;;;6239528;23;19947;-90
2022/06/10 14:27:22;;;;;;;;;;;;;;;;;;6220844;23;19923;-92
2022/06/10 14:29:48;;;;;;;;;;;;;;;;;;6237605;23;19927;-91
2022/06/10 14:32:17;;;;;;;;;;;;;;;;;;6215526;23;19923;-91
2022/06/10 14:34:44;;;;;;;;;;;;;;;;;;6213074;23;19926;-89
2022/06/10 14:37:10;;;;;;;;;;;;;;;;;;6214263;23;20415;-91
2022/06/10 14:39:39;;;;;;;;;;;;;;;;;;6214074;23;19970;-92
2022/06/10 14:42:05;;;;;;;;;;;;;;;;;;6249622;23;20340;-91
2022/06/10 14:44:31;;;;;;;;;;;;;;;;;;6215455;23;19990;-91
2022/06/10 14:46:57;;;;;;;;;;;;;;;;;;6213495;23;19990;-90
2022/06/10 14:49:25;;;;;;;;;;;;;;;;;;6238806;23;19922;-89
2022/06/10 14:52:00;;;;;;;;;;;;;;;;;;6191296;23;19915;-89
2022/06/10 14:54:26;;;;;;;;;;;;;;;;;;6187171;23;20433;-90
2022/06/10 14:56:52;;;;;;;;;;;;;;;;;;6214053;23;19915;-90
2022/06/10 14:59:19;;;;;;;;;;;;;;;;;;6189522;23;19970;-90
2022/06/10 15:01:44;;;;;;;;;;;;;;;;;;6187257;23;20618;-91
2022/06/10 15:04:11;;;;;;;;;;;;;;;;;;6188929;23;19915;-90
2022/06/10 15:06:37;;;;;;;;;;;;;;;;;;6187248;23;19916;-90
2022/06/10 15:09:03;;;;;;;;;;;;;;;;;;6189018;23;19927;-90
2022/06/10 15:11:29;;;;;;;;;;;;;;;;;;6211798;23;19916;-90
2022/06/10 15:13:58;;;;;;;;;;;;;;;;;;6187857;23;19920;-92
2022/06/10 15:16:24;;;;;;;;;;;;;;;;;;6238847;23;19930;-91
2022/06/10 15:18:50;;;;;;;;;;;;;;;;;;6214348;23;19924;-91
2022/06/10 15:21:18;;;;;;;;;;;;;;;;;;6238258;23;19922;-91
2022/06/10 15:23:44;;;;;;;;;;;;;;;;;;6238130;23;20175;-89
2022/06/10 15:26:10;;;;;;;;;;;;;;;;;;6213319;23;19955;-90
2022/06/10 15:28:40;;;;;;;;;;;;;;;;;;6211141;23;20214;-89
2022/06/10 15:31:08;;;;;;;;;;;;;;;;;;6189140;23;19994;-90
2022/06/10 15:33:34;;;;;;;;;;;;;;;;;;6210716;23;19955;-90
2022/06/10 15:41:30;;;;;;;;;;;;;;;;;;6242402;22;20225;-90
2022/06/10 15:43:56;;;;;;;;;;;;;;;;;;6218280;22;20677;-89
2022/06/10 15:46:24;;;;;;;;;;;;;;;;;;6243844;22;19919;-90
2022/06/10 15:48:51;;;;;;;;;;;;;;;;;;6218740;22;19926;-92
2022/06/10 15:51:17;;;;;;;;;;;;;;;;;;6218647;22;19915;-91
2022/06/10 15:53:43;;;;;;;;;;;;;;;;;;6216779;22;20255;-90
2022/06/10 15:58:54;;;;;;;;;;;;;;;;;;6243538;22;19920;-90
2022/06/10 16:01:24;;;;;;;;;;;;;;;;;;6268637;22;19923;-90
2022/06/10 16:03:50;;;;;;;;;;;;;;;;;;6218684;22;19923;-89
2022/06/10 16:06:17;;;;;;;;;;;;;;;;;;6218729;22;20248;-91
2022/06/10 16:08:43;;;;;;;;;;;;;;;;;;6217335;22;19919;-89
2022/06/10 16:11:09;;;;;;;;;;;;;;;;;;6218933;22;19915;-91
2022/06/10 16:13:35;;;;;;;;;;;;;;;;;;6217057;22;19919;-91
2022/06/10 16:16:03;;;;;;;;;;;;;;;;;;6223247;22;19946;-90
2022/06/10 16:18:29;;;;;;;;;;;;;;;;;;6223508;22;19915;-90
2022/06/10 16:20:56;;;;;;;;;;;;;;;;;;6248213;22;19929;-89
2022/06/10 16:23:22;;;;;;;;;;;;;;;;;;6224024;22;19919;-91
2022/06/10 16:25:48;;;;;;;;;;;;;;;;;;6225916;22;19922;-90
2022/06/10 16:28:14;;;;;;;;;;;;;;;;;;6225528;22;19919;-91
2022/06/10 16:30:40;;;;;;;;;;;;;;;;;;6224374;22;19915;-90
2022/06/10 16:33:06;;;;;;;;;;;;;;;;;;6247512;22;19919;-89
2022/06/10 16:35:41;;;;;;;;;;;;;;;;;;6220014;22;19922;-91
2022/06/10 16:38:07;;;;;;;;;;;;;;;;;;6242079;22;20633;-94
2022/06/10 16:40:33;;;;;;;;;;;;;;;;;;6219806;22;19994;-94
2022/06/10 16:43:09;;;;;;;;;;;;;;;;;;6220597;22;19984;-95
2022/06/10 16:45:45;;;;;;;;;;;;;;;;;;;;;
2022/06/10 16:48:11;;;;;;;;;;;;;;;;;;6237733;22;19941;-91
2022/06/10 16:50:39;;;;;;;;;;;;;;;;;;6210597;22;19998;-91
2022/06/10 16:53:06;;;;;;;;;;;;;;;;;;6212883;22;19969;-92
2022/06/10 16:55:34;;;;;;;;;;;;;;;;;;6236238;22;19981;-91
2022/06/10 16:58:01;;;;;;;;;;;;;;;;;;6243726;22;19922;-91
2022/06/10 17:00:30;;;;;;;;;;;;;;;;;;6213112;22;20346;-93
2022/06/10 17:02:56;;;;;;;;;;;;;;;;;;6216201;22;19915;-91
2022/06/10 17:05:22;;;;;;;;;;;;;;;;;;6215477;22;19923;-91
2022/06/10 17:07:48;;;;;;;;;;;;;;;;;;6212407;22;19915;-92
2022/06/10 17:10:17;;;;;;;;;;;;;;;;;;6213390;22;19919;-90
2022/06/10 17:12:43;;;;;;;;;;;;;;;;;;6211793;22;19919;-91